createdAt,value
2018-09-30T00:01:31.131Z,1.10
2018-09-30T00:03:58.771Z,0.90
2018-09-30T00:06:26.542Z,0.83
2018-09-30T00:08:54.179Z,1.20
2018-09-30T00:11:21.819Z,1.10
2018-09-30T00:13:49.440Z,1.07
2018-09-30T00:16:17.110Z,1.17
2018-09-30T00:18:44.892Z,0.70
2018-09-30T00:21:12.442Z,0.73
2018-09-30T00:23:45.770Z,0.97
2018-09-30T00:26:18.951Z,0.90
2018-09-30T00:28:46.714Z,1.40
2018-09-30T00:31:14.367Z,1.10
2018-09-30T00:33:47.729Z,0.97
2018-09-30T00:36:15.489Z,1.20
2018-09-30T00:38:43.119Z,1.10
2018-09-30T00:41:10.756Z,1.10
2018-09-30T00:43:38.437Z,1.10
2018-09-30T00:46:05.973Z,1.17
2018-09-30T00:48:33.715Z,1.07
2018-09-30T00:51:01.423Z,1.20
2018-09-30T00:53:29.054Z,1.13
2018-09-30T00:55:56.598Z,1.17
2018-09-30T00:58:24.239Z,1.10
2018-09-30T01:02:16.418Z,0.97
2018-09-30T01:04:44.090Z,0.90
2018-09-30T01:07:11.749Z,0.87
2018-09-30T01:09:39.374Z,1.13
2018-09-30T01:12:06.940Z,1.00
2018-09-30T01:14:34.457Z,0.90
2018-09-30T01:17:02.122Z,0.87
2018-09-30T01:19:29.734Z,0.90
2018-09-30T01:21:57.274Z,0.77
2018-09-30T01:24:24.967Z,0.83
2018-09-30T01:26:52.646Z,0.97
2018-09-30T01:29:20.303Z,0.77
2018-09-30T01:31:47.970Z,0.80
2018-09-30T01:34:15.607Z,0.97
2018-09-30T01:36:43.519Z,0.90
2018-09-30T01:39:17.766Z,1.00
2018-09-30T01:41:45.450Z,1.17
2018-09-30T01:44:13.057Z,0.90
2018-09-30T01:46:40.860Z,1.10
2018-09-30T01:49:08.590Z,1.00
2018-09-30T01:51:36.230Z,1.00
2018-09-30T01:54:03.876Z,1.10
2018-09-30T01:56:31.527Z,1.03
2018-09-30T01:58:59.345Z,1.03
2018-09-30T02:01:27.040Z,1.20
2018-09-30T02:03:54.710Z,0.80
2018-09-30T02:06:22.366Z,0.90
2018-09-30T02:08:50.002Z,1.00
2018-09-30T02:11:17.661Z,1.20
2018-09-30T02:13:45.382Z,0.97
2018-09-30T02:16:13.118Z,0.83
2018-09-30T02:18:40.792Z,1.00
2018-09-30T02:21:08.434Z,0.77
2018-09-30T02:23:36.059Z,0.90
2018-09-30T02:26:03.746Z,0.83
2018-09-30T02:28:31.393Z,0.77
2018-09-30T02:30:59.093Z,0.73
2018-09-30T02:33:26.711Z,1.23
2018-09-30T02:35:54.222Z,1.00
2018-09-30T02:38:21.838Z,1.33
2018-09-30T02:40:49.467Z,0.80
2018-09-30T02:43:17.119Z,1.00
2018-09-30T02:45:44.770Z,0.80
2018-09-30T02:48:12.403Z,1.03
2018-09-30T02:50:39.929Z,0.80
2018-09-30T02:53:08.427Z,1.00
2018-09-30T02:55:37.139Z,1.30
2018-09-30T02:58:04.878Z,1.13
2018-09-30T03:00:32.491Z,1.20
2018-09-30T03:03:00.132Z,0.97
2018-09-30T03:05:27.743Z,0.90
2018-09-30T03:08:01.014Z,0.90
2018-09-30T03:10:28.619Z,1.17
2018-09-30T03:12:56.302Z,1.10
2018-09-30T03:15:23.926Z,1.30
2018-09-30T03:17:51.629Z,1.00
2018-09-30T03:20:19.254Z,0.80
2018-09-30T03:22:46.866Z,0.93
2018-09-30T03:25:14.495Z,0.80
2018-09-30T03:27:42.191Z,0.90
2018-09-30T03:30:09.898Z,1.03
2018-09-30T03:32:37.596Z,1.20
2018-09-30T03:35:05.259Z,1.43
2018-09-30T03:37:32.953Z,1.20
2018-09-30T03:40:00.586Z,1.03
2018-09-30T03:42:28.205Z,1.10
2018-09-30T03:44:55.938Z,0.90
2018-09-30T03:47:23.460Z,1.20
2018-09-30T03:49:51.090Z,1.10
2018-09-30T03:52:18.794Z,0.93
2018-09-30T03:54:46.409Z,1.00
2018-09-30T03:57:14.046Z,1.10
2018-09-30T03:59:41.705Z,1.27
2018-09-30T04:02:09.339Z,1.50
2018-09-30T04:04:37.045Z,1.27
2018-09-30T04:07:04.685Z,1.03
2018-09-30T04:09:32.329Z,1.23
2018-09-30T04:11:59.845Z,1.73
2018-09-30T04:14:27.482Z,1.43
2018-09-30T04:16:55.109Z,0.93
2018-09-30T04:19:22.595Z,1.13
2018-09-30T04:21:50.251Z,1.20
2018-09-30T04:24:17.785Z,1.37
2018-09-30T04:26:45.418Z,1.30
2018-09-30T04:29:12.937Z,1.23
2018-09-30T04:31:40.570Z,1.47
2018-09-30T04:34:08.195Z,1.23
2018-09-30T04:36:36.105Z,1.20
2018-09-30T04:39:05.401Z,1.30
2018-09-30T04:41:33.026Z,1.20
2018-09-30T04:44:00.557Z,1.20
2018-09-30T04:46:28.210Z,1.07
2018-09-30T04:48:55.882Z,1.30
2018-09-30T04:51:23.581Z,1.10
2018-09-30T04:53:51.106Z,1.40
2018-09-30T04:56:18.722Z,1.30
2018-09-30T04:58:46.398Z,1.27
2018-09-30T05:01:14.210Z,1.47
2018-09-30T05:03:41.757Z,1.00
2018-09-30T05:06:09.356Z,1.10
2018-09-30T05:08:37.087Z,1.00
2018-09-30T05:11:04.731Z,1.40
2018-09-30T05:13:32.456Z,1.30
2018-09-30T05:16:00.190Z,1.10
2018-09-30T05:18:27.770Z,1.30
2018-09-30T05:20:55.443Z,1.27
2018-09-30T05:23:23.006Z,1.30
2018-09-30T05:25:50.623Z,1.50
2018-09-30T05:28:18.278Z,1.33
2018-09-30T05:30:45.903Z,1.40
2018-09-30T05:33:13.445Z,1.30
2018-09-30T05:35:40.964Z,1.23
2018-09-30T05:38:08.484Z,1.43
2018-09-30T05:40:36.168Z,1.53
2018-09-30T05:43:03.698Z,1.00
2018-09-30T05:45:31.383Z,1.20
2018-09-30T05:47:59.181Z,1.10
2018-09-30T05:50:26.840Z,1.10
2018-09-30T05:52:54.413Z,1.23
2018-09-30T05:55:22.039Z,1.13
2018-09-30T05:57:49.739Z,1.33
2018-09-30T06:00:17.390Z,1.40
2018-09-30T06:02:45.214Z,1.33
2018-09-30T06:05:12.738Z,1.60
2018-09-30T06:07:40.353Z,1.40
2018-09-30T06:10:07.945Z,1.53
2018-09-30T06:12:35.606Z,1.50
2018-09-30T06:15:03.263Z,1.53
2018-09-30T06:17:30.837Z,1.60
2018-09-30T06:19:58.496Z,1.70
2018-09-30T06:22:26.201Z,1.93
2018-09-30T06:24:53.974Z,1.53
2018-09-30T06:27:21.679Z,1.53
2018-09-30T06:29:49.453Z,1.40
2018-09-30T06:32:17.127Z,1.50
2018-09-30T06:34:44.827Z,1.60
2018-09-30T06:37:12.542Z,1.83
2018-09-30T06:39:40.214Z,1.77
2018-09-30T06:42:08.091Z,2.20
2018-09-30T06:44:35.630Z,2.00
2018-09-30T06:47:03.482Z,2.20
2018-09-30T06:49:31.182Z,2.50
2018-09-30T06:51:58.864Z,1.50
2018-09-30T06:54:26.394Z,2.10
2018-09-30T06:56:54.128Z,1.90
2018-09-30T06:59:21.760Z,2.00
2018-09-30T07:01:49.375Z,2.50
2018-09-30T07:04:17.022Z,3.52
2018-09-30T07:06:44.670Z,2.47
2018-09-30T07:09:12.287Z,2.40
2018-09-30T07:11:39.895Z,2.00
2018-09-30T07:14:07.539Z,3.37
2018-09-30T07:16:35.174Z,2.10
2018-09-30T07:19:02.820Z,1.90
2018-09-30T07:21:30.478Z,2.57
2018-09-30T07:23:58.095Z,1.97
2018-09-30T07:26:25.754Z,2.00
2018-09-30T07:28:53.358Z,2.20
2018-09-30T07:31:20.978Z,1.80
2018-09-30T07:33:48.689Z,1.77
2018-09-30T07:36:16.311Z,1.90
2018-09-30T07:38:43.946Z,2.40
2018-09-30T07:41:11.609Z,2.60
2018-09-30T07:43:39.303Z,2.57
2018-09-30T07:46:07.126Z,2.90
2018-09-30T07:48:34.771Z,2.80
2018-09-30T07:51:02.413Z,1.87
2018-09-30T07:53:30.043Z,2.87
2018-09-30T07:55:57.704Z,2.50
2018-09-30T07:58:25.379Z,2.10
2018-09-30T08:00:53.018Z,2.10
2018-09-30T08:03:20.724Z,2.43
2018-09-30T08:05:48.385Z,1.77
2018-09-30T08:08:16.947Z,1.80
2018-09-30T08:10:44.769Z,1.70
2018-09-30T08:13:12.474Z,2.33
2018-09-30T08:15:40.106Z,2.00
2018-09-30T08:18:07.841Z,1.80
2018-09-30T08:20:35.462Z,1.93
2018-09-30T08:23:03.121Z,2.35
2018-09-30T08:25:30.746Z,2.60
2018-09-30T08:27:58.451Z,1.80
2018-09-30T08:30:26.136Z,1.70
2018-09-30T08:32:53.781Z,1.60
2018-09-30T08:35:21.522Z,1.63
2018-09-30T08:37:54.830Z,2.95
2018-09-30T08:40:28.003Z,2.20
2018-09-30T08:42:55.788Z,1.53
2018-09-30T08:45:23.398Z,2.10
2018-09-30T08:47:51.019Z,1.77
2018-09-30T08:50:18.773Z,1.80
2018-09-30T08:52:46.395Z,1.93
2018-09-30T08:55:14.025Z,2.10
2018-09-30T08:57:41.622Z,2.23
2018-09-30T09:00:09.324Z,2.10
2018-09-30T09:02:37.512Z,1.97
2018-09-30T09:05:05.138Z,1.83
2018-09-30T09:07:32.746Z,2.40
2018-09-30T09:10:00.347Z,1.90
2018-09-30T09:12:28.042Z,1.90
2018-09-30T09:14:55.718Z,1.77
2018-09-30T09:17:23.366Z,1.83
2018-09-30T09:19:51.035Z,1.93
2018-09-30T09:22:18.683Z,1.97
2018-09-30T09:24:46.314Z,2.10
2018-09-30T09:27:13.958Z,2.10
2018-09-30T09:29:41.598Z,1.70
2018-09-30T09:32:09.242Z,2.23
2018-09-30T09:34:36.908Z,2.03
2018-09-30T09:37:04.573Z,2.30
2018-09-30T09:39:33.001Z,1.77
2018-09-30T09:42:00.643Z,2.30
2018-09-30T09:44:28.290Z,1.83
2018-09-30T09:46:55.986Z,1.83
2018-09-30T09:49:23.582Z,1.87
2018-09-30T09:51:51.197Z,1.83
2018-09-30T09:54:18.835Z,2.50
2018-09-30T09:56:46.527Z,2.30
2018-09-30T09:59:14.385Z,3.40
2018-09-30T10:01:42.035Z,6.20
2018-09-30T10:04:09.674Z,5.53
2018-09-30T10:06:37.346Z,3.90
2018-09-30T10:09:05.733Z,2.67
2018-09-30T10:11:33.387Z,2.53
2018-09-30T10:14:01.023Z,1.53
2018-09-30T10:16:28.634Z,2.03
2018-09-30T10:18:56.302Z,2.00
2018-09-30T10:21:24.017Z,2.03
2018-09-30T10:23:51.670Z,1.77
2018-09-30T10:26:19.285Z,2.20
2018-09-30T10:28:46.909Z,2.30
2018-09-30T10:31:14.650Z,2.27
2018-09-30T10:33:42.263Z,2.10
2018-09-30T10:36:09.878Z,2.30
2018-09-30T10:38:37.647Z,2.33
2018-09-30T10:41:05.413Z,2.13
2018-09-30T10:43:33.023Z,2.17
2018-09-30T10:46:00.602Z,1.83
2018-09-30T10:48:28.377Z,2.03
2018-09-30T10:50:56.182Z,1.93
2018-09-30T10:53:23.761Z,2.20
2018-09-30T10:55:51.466Z,2.17
2018-09-30T10:58:19.059Z,2.10
2018-09-30T11:00:46.709Z,2.33
2018-09-30T11:03:14.301Z,2.03
2018-09-30T11:05:41.835Z,2.10
2018-09-30T11:08:09.455Z,1.90
2018-09-30T11:10:36.987Z,2.37
2018-09-30T11:13:04.754Z,2.50
2018-09-30T11:15:32.257Z,2.17
2018-09-30T11:17:59.830Z,2.40
2018-09-30T11:20:27.421Z,2.10
2018-09-30T11:22:55.044Z,2.20
2018-09-30T11:25:22.578Z,2.20
2018-09-30T11:27:50.082Z,2.33
2018-09-30T11:30:17.758Z,2.00
2018-09-30T11:32:45.362Z,1.90
2018-09-30T11:35:12.922Z,2.27
2018-09-30T11:37:40.473Z,2.10
2018-09-30T11:40:08.126Z,2.10
2018-09-30T11:42:35.660Z,1.63
2018-09-30T11:45:03.338Z,1.73
2018-09-30T11:47:30.882Z,1.60
2018-09-30T11:49:58.380Z,2.43
2018-09-30T11:52:25.973Z,2.10
2018-09-30T11:54:53.496Z,1.90
2018-09-30T11:57:21.044Z,2.27
2018-09-30T11:59:48.646Z,1.70
2018-09-30T12:02:16.326Z,1.70
2018-09-30T12:04:44.102Z,1.83
2018-09-30T12:07:11.698Z,1.83
2018-09-30T12:09:39.230Z,2.20
2018-09-30T12:12:06.901Z,1.93
2018-09-30T12:14:34.418Z,1.63
2018-09-30T12:17:01.938Z,1.80
2018-09-30T12:19:29.591Z,1.83
2018-09-30T12:21:57.250Z,2.23
2018-09-30T12:24:24.809Z,1.73
2018-09-30T12:26:52.339Z,1.70
2018-09-30T12:29:19.884Z,1.70
2018-09-30T12:31:47.434Z,2.33
2018-09-30T12:34:14.994Z,1.67
2018-09-30T12:36:42.607Z,2.10
2018-09-30T12:39:10.735Z,2.60
2018-09-30T12:41:38.462Z,2.70
2018-09-30T12:44:06.413Z,2.20
2018-09-30T12:46:34.058Z,2.27
2018-09-30T12:49:01.872Z,2.60
2018-09-30T12:51:29.509Z,2.30
2018-09-30T12:53:57.908Z,2.10
2018-09-30T12:56:25.562Z,2.47
2018-09-30T12:58:53.105Z,2.63
2018-09-30T13:01:20.765Z,2.30
2018-09-30T13:03:48.314Z,2.10
2018-09-30T13:06:16.016Z,2.10
2018-09-30T13:08:43.659Z,2.33
2018-09-30T13:11:11.213Z,2.23
2018-09-30T13:13:38.755Z,2.00
2018-09-30T13:16:06.299Z,2.23
2018-09-30T13:18:33.945Z,2.10
2018-09-30T13:21:01.866Z,1.67
2018-09-30T13:23:29.450Z,1.90
2018-09-30T13:25:56.974Z,2.10
2018-09-30T13:28:24.578Z,1.80
2018-09-30T13:30:52.135Z,1.80
2018-09-30T13:33:20.057Z,2.10
2018-09-30T13:35:47.556Z,1.90
2018-09-30T13:38:15.118Z,1.90
2018-09-30T13:40:42.754Z,2.30
2018-09-30T13:43:10.201Z,2.17
2018-09-30T13:45:37.730Z,2.10
2018-09-30T13:48:05.427Z,1.90
2018-09-30T13:50:32.977Z,1.90
2018-09-30T13:53:00.627Z,2.13
2018-09-30T13:55:29.061Z,2.17
2018-09-30T13:57:56.569Z,2.27
2018-09-30T14:00:24.090Z,2.20
2018-09-30T14:02:51.766Z,1.80
2018-09-30T14:05:19.361Z,1.90
2018-09-30T14:07:46.973Z,1.80
2018-09-30T14:10:14.627Z,1.83
2018-09-30T14:12:42.260Z,1.83
2018-09-30T14:15:09.786Z,1.77
2018-09-30T14:17:37.441Z,1.80
2018-09-30T14:20:05.126Z,1.90
2018-09-30T14:22:32.770Z,1.67
2018-09-30T14:25:00.427Z,1.50
2018-09-30T14:27:28.263Z,2.00
2018-09-30T14:29:55.750Z,1.77
2018-09-30T14:32:23.451Z,1.83
2018-09-30T14:34:51.074Z,2.10
2018-09-30T14:37:18.586Z,2.13
2018-09-30T14:39:46.297Z,2.53
2018-09-30T14:42:13.909Z,2.60
2018-09-30T14:44:41.581Z,2.17
2018-09-30T14:47:09.146Z,2.43
2018-09-30T14:49:36.706Z,2.17
2018-09-30T14:52:04.332Z,2.10
2018-09-30T14:54:32.037Z,2.17
2018-09-30T14:56:59.520Z,1.97
2018-09-30T14:59:27.057Z,1.83
2018-09-30T15:01:54.693Z,1.90
2018-09-30T15:04:22.244Z,2.07
2018-09-30T15:06:49.884Z,2.10
2018-09-30T15:09:17.456Z,2.77
2018-09-30T15:11:45.047Z,2.03
2018-09-30T15:14:12.565Z,2.20
2018-09-30T15:16:40.242Z,2.03
2018-09-30T15:19:07.774Z,2.20
2018-09-30T15:21:35.373Z,2.53
2018-09-30T15:24:03.095Z,2.07
2018-09-30T15:26:30.765Z,2.43
2018-09-30T15:28:58.277Z,2.03
2018-09-30T15:31:25.789Z,2.00
2018-09-30T15:33:53.306Z,1.87
2018-09-30T15:36:20.854Z,2.20
2018-09-30T15:38:48.667Z,2.13
2018-09-30T15:41:16.194Z,2.20
2018-09-30T15:43:43.727Z,2.20
2018-09-30T15:46:11.318Z,1.90
2018-09-30T15:48:38.861Z,2.10
2018-09-30T15:51:06.594Z,1.93
2018-09-30T15:53:34.307Z,2.50
2018-09-30T15:56:01.930Z,2.20
2018-09-30T15:58:29.556Z,2.13
2018-09-30T16:00:57.190Z,2.20
2018-09-30T16:03:24.703Z,3.20
2018-09-30T16:05:52.374Z,2.37
2018-09-30T16:08:19.967Z,2.43
2018-09-30T16:10:47.550Z,2.43
2018-09-30T16:13:15.074Z,2.80
2018-09-30T16:15:42.727Z,2.50
2018-09-30T16:18:10.301Z,2.40
2018-09-30T16:20:37.966Z,2.40
2018-09-30T16:23:05.656Z,2.60
2018-09-30T16:25:33.293Z,3.00
2018-09-30T16:28:00.842Z,3.57
2018-09-30T16:30:28.490Z,2.97
2018-09-30T16:32:56.130Z,3.00
2018-09-30T16:35:23.662Z,3.40
2018-09-30T16:37:51.402Z,2.73
2018-09-30T16:40:18.966Z,3.57
2018-09-30T16:42:46.637Z,2.87
2018-09-30T16:45:14.180Z,2.83
2018-09-30T16:47:41.912Z,3.17
2018-09-30T16:50:09.553Z,3.30
2018-09-30T16:52:37.182Z,3.10
2018-09-30T16:55:04.743Z,2.70
2018-09-30T16:57:32.434Z,2.87
2018-09-30T16:59:59.963Z,3.03
2018-09-30T17:02:27.691Z,2.73
2018-09-30T17:04:55.342Z,2.37
2018-09-30T17:07:22.882Z,2.00
2018-09-30T17:09:50.465Z,2.43
2018-09-30T17:12:18.020Z,3.20
2018-09-30T17:14:45.662Z,3.33
2018-09-30T17:17:13.194Z,3.60
2018-09-30T17:19:40.781Z,3.73
2018-09-30T17:22:08.333Z,2.80
2018-09-30T17:24:36.046Z,2.60
2018-09-30T17:27:03.816Z,2.17
2018-09-30T17:29:31.369Z,2.10
2018-09-30T17:31:59.093Z,2.27
2018-09-30T17:34:26.694Z,2.30
2018-09-30T17:36:54.303Z,2.17
2018-09-30T17:39:21.934Z,1.93
2018-09-30T17:41:49.594Z,2.67
2018-09-30T17:44:17.219Z,2.20
2018-09-30T17:46:44.797Z,2.07
2018-09-30T17:49:12.338Z,2.20
2018-09-30T17:51:40.050Z,2.23
2018-09-30T17:54:07.690Z,2.37
2018-09-30T17:56:35.358Z,2.13
2018-09-30T17:59:03.641Z,2.73
2018-09-30T18:01:31.278Z,2.80
2018-09-30T18:04:05.657Z,2.07
2018-09-30T18:06:33.162Z,2.87
2018-09-30T18:09:00.725Z,2.27
2018-09-30T18:11:28.296Z,2.13
2018-09-30T18:13:55.830Z,2.10
2018-09-30T18:16:23.549Z,2.43
2018-09-30T18:18:51.382Z,2.37
2018-09-30T18:21:18.926Z,2.50
2018-09-30T18:23:46.692Z,2.80
2018-09-30T18:26:14.298Z,2.20
2018-09-30T18:28:41.986Z,2.23
2018-09-30T18:31:09.521Z,2.00
2018-09-30T18:33:37.314Z,2.60
2018-09-30T18:36:04.886Z,2.40
2018-09-30T18:38:32.414Z,2.53
2018-09-30T18:40:59.929Z,2.50
2018-09-30T18:43:27.494Z,2.50
2018-09-30T18:45:55.154Z,2.20
2018-09-30T18:48:22.710Z,2.50
2018-09-30T18:50:50.230Z,2.40
2018-09-30T18:53:24.454Z,2.17
2018-09-30T18:55:52.069Z,2.23
2018-09-30T18:58:19.701Z,2.33
2018-09-30T19:00:47.351Z,2.10
2018-09-30T19:03:14.949Z,2.47
2018-09-30T19:05:42.496Z,3.20
2018-09-30T19:08:10.113Z,2.97
2018-09-30T19:10:37.646Z,3.93
2018-09-30T19:13:05.638Z,3.83
2018-09-30T19:15:33.448Z,3.90
2018-09-30T19:18:01.020Z,3.93
2018-09-30T19:20:28.549Z,4.87
2018-09-30T19:22:56.162Z,4.60
2018-09-30T19:25:23.791Z,4.27
2018-09-30T19:27:51.430Z,3.87
2018-09-30T19:30:19.110Z,3.43
2018-09-30T19:32:46.682Z,3.30
2018-09-30T19:35:14.337Z,2.53
2018-09-30T19:37:41.882Z,2.57
2018-09-30T19:40:09.571Z,2.10
2018-09-30T19:42:37.320Z,2.20
2018-09-30T19:45:04.882Z,2.17
2018-09-30T19:47:32.447Z,2.23
2018-09-30T19:50:00.026Z,2.70
2018-09-30T19:52:27.735Z,2.50
2018-09-30T19:54:55.277Z,2.37
2018-09-30T19:57:22.906Z,2.30
2018-09-30T19:59:50.446Z,2.00
2018-09-30T20:02:17.987Z,1.93
2018-09-30T20:04:45.577Z,2.10
2018-09-30T20:07:13.124Z,2.00
2018-09-30T20:09:40.793Z,2.17
2018-09-30T20:12:08.329Z,1.87
2018-09-30T20:14:35.840Z,2.13
2018-09-30T20:17:03.579Z,2.33
2018-09-30T20:19:31.165Z,2.60
2018-09-30T20:21:58.713Z,1.90
2018-09-30T20:24:26.346Z,2.40
2018-09-30T20:26:53.955Z,2.40
2018-09-30T20:29:21.569Z,2.50
2018-09-30T20:31:49.180Z,2.37
2018-09-30T20:34:16.711Z,2.20
2018-09-30T20:36:44.242Z,2.43
2018-09-30T20:39:11.858Z,2.60
2018-09-30T20:41:39.474Z,1.90
2018-09-30T20:44:07.318Z,2.77
2018-09-30T20:47:37.570Z,2.73
2018-09-30T20:50:05.283Z,2.23
2018-09-30T20:52:33.955Z,2.50
2018-09-30T20:55:01.575Z,2.00
2018-09-30T20:57:29.256Z,2.40
2018-09-30T20:59:56.782Z,2.33
2018-09-30T21:02:24.334Z,2.20
2018-09-30T21:04:52.050Z,1.87
2018-09-30T21:07:19.582Z,2.20
2018-09-30T21:09:47.106Z,2.10
2018-09-30T21:12:14.633Z,2.33
2018-09-30T21:14:42.275Z,1.90
2018-09-30T21:17:09.812Z,1.80
2018-09-30T21:19:37.483Z,2.13
2018-09-30T21:22:05.021Z,2.17
2018-09-30T21:24:32.617Z,2.23
2018-09-30T21:27:00.275Z,2.07
2018-09-30T21:29:27.926Z,1.97
2018-09-30T21:31:55.523Z,2.60
2018-09-30T21:34:23.162Z,2.30
2018-09-30T21:36:50.689Z,3.65
2018-09-30T21:39:18.277Z,2.87
2018-09-30T21:41:45.930Z,2.80
2018-09-30T21:44:13.486Z,3.00
2018-09-30T21:46:41.040Z,2.87
2018-09-30T21:49:08.700Z,3.77
2018-09-30T21:51:36.284Z,3.43
2018-09-30T21:54:03.801Z,2.77
2018-09-30T21:56:31.403Z,3.00
2018-09-30T21:58:59.068Z,4.15
2018-09-30T22:01:26.793Z,3.10
2018-09-30T22:03:54.387Z,2.83
2018-09-30T22:06:21.904Z,3.20
2018-09-30T22:08:49.421Z,2.60
2018-09-30T22:11:17.074Z,2.80
2018-09-30T22:13:44.699Z,2.77
2018-09-30T22:16:12.258Z,3.33
2018-09-30T22:18:39.785Z,3.27
2018-09-30T22:21:07.437Z,3.07
2018-09-30T22:23:35.084Z,4.42
2018-09-30T22:26:02.625Z,3.57
2018-09-30T22:28:30.154Z,4.47
2018-09-30T22:30:57.799Z,3.70
2018-09-30T22:33:25.438Z,2.50
2018-09-30T22:35:53.087Z,4.00
2018-09-30T22:38:20.629Z,3.80
2018-09-30T22:40:48.269Z,3.47
2018-09-30T22:43:15.861Z,3.02
2018-09-30T22:45:43.522Z,4.00
2018-09-30T22:48:11.071Z,3.37
2018-09-30T22:50:38.773Z,2.97
2018-09-30T22:53:06.426Z,2.70
2018-09-30T22:55:34.190Z,3.00
2018-09-30T22:58:01.933Z,2.50
2018-09-30T23:00:29.598Z,2.87
2018-09-30T23:02:57.297Z,3.30
2018-09-30T23:05:24.998Z,2.60
2018-09-30T23:07:52.617Z,2.47
2018-09-30T23:10:20.294Z,2.90
2018-09-30T23:12:47.841Z,3.10
2018-09-30T23:15:15.495Z,2.77
2018-09-30T23:17:43.166Z,2.20
2018-09-30T23:20:14.446Z,2.80
2018-09-30T23:22:42.001Z,2.80
2018-09-30T23:25:09.538Z,2.63
2018-09-30T23:27:37.054Z,4.20
2018-09-30T23:30:04.613Z,4.10
2018-09-30T23:32:32.239Z,3.37
2018-09-30T23:34:59.877Z,3.17
2018-09-30T23:37:27.531Z,2.77
2018-09-30T23:39:55.173Z,2.80
2018-09-30T23:42:22.816Z,2.60
2018-09-30T23:44:50.498Z,2.87
2018-09-30T23:47:18.039Z,3.13
2018-09-30T23:49:45.577Z,2.97
2018-09-30T23:52:13.230Z,3.17
2018-09-30T23:54:40.881Z,3.90
2018-09-30T23:57:08.506Z,3.33
2018-09-30T23:59:36.052Z,3.20
